createdAt,value
2023-01-29T00:01:39.251Z,16.07
2023-01-29T00:04:07.720Z,17.07
2023-01-29T00:06:37.546Z,16.37
2023-01-29T00:09:06.132Z,17.10
2023-01-29T00:11:34.964Z,15.70
2023-01-29T00:14:03.421Z,14.77
2023-01-29T00:16:31.799Z,15.67
2023-01-29T00:19:00.285Z,17.50
2023-01-29T00:21:28.945Z,17.17
2023-01-29T00:23:59.068Z,18.50
2023-01-29T00:26:27.519Z,16.30
2023-01-29T00:28:57.017Z,16.93
2023-01-29T00:31:26.605Z,17.00
2023-01-29T00:33:55.302Z,19.40
2023-01-29T00:36:23.963Z,19.20
2023-01-29T00:38:58.826Z,17.40
2023-01-29T00:41:47.325Z,17.50
2023-01-29T00:44:33.379Z,15.23
2023-01-29T00:47:02.008Z,15.83
2023-01-29T00:49:31.242Z,14.63
2023-01-29T00:52:17.136Z,15.00
2023-01-29T00:54:45.601Z,16.77
2023-01-29T00:57:15.502Z,16.40
2023-01-29T00:59:44.015Z,16.17
2023-01-29T01:02:29.810Z,15.57
2023-01-29T01:04:58.501Z,15.20
2023-01-29T01:07:26.901Z,15.33
2023-01-29T01:10:13.197Z,15.70
2023-01-29T01:12:43.045Z,15.43
2023-01-29T01:15:12.204Z,16.87
2023-01-29T01:17:40.649Z,15.17
2023-01-29T01:20:09.723Z,17.33
2023-01-29T01:22:38.163Z,16.53
2023-01-29T01:25:07.303Z,17.37
2023-01-29T01:27:37.824Z,15.60
2023-01-29T01:30:08.982Z,15.57
2023-01-29T01:32:37.453Z,15.03
2023-01-29T01:35:06.177Z,15.43
2023-01-29T01:37:37.520Z,15.40
2023-01-29T01:40:12.903Z,15.70
2023-01-29T01:42:41.439Z,14.57
2023-01-29T01:45:20.285Z,15.73
2023-01-29T01:47:49.768Z,15.97
2023-01-29T01:50:20.098Z,16.00
2023-01-29T01:52:50.187Z,17.10
2023-01-29T01:55:20.709Z,16.60
2023-01-29T01:57:50.498Z,16.00
2023-01-29T02:00:22.050Z,15.90
2023-01-29T02:03:08.122Z,17.37
2023-01-29T02:05:56.931Z,18.20
2023-01-29T02:08:46.911Z,16.00
2023-01-29T02:11:15.569Z,16.30
2023-01-29T02:13:43.993Z,17.13
2023-01-29T02:16:13.810Z,16.60
2023-01-29T02:18:42.326Z,16.03
2023-01-29T02:21:29.263Z,16.43
2023-01-29T02:24:11.472Z,15.27
2023-01-29T02:26:43.292Z,14.57
2023-01-29T02:29:25.198Z,14.77
2023-01-29T02:31:59.018Z,14.00
2023-01-29T02:34:52.640Z,15.30
2023-01-29T02:37:25.721Z,15.03
2023-01-29T02:39:59.481Z,13.90
2023-01-29T02:42:30.198Z,14.93
2023-01-29T02:45:02.259Z,12.83
2023-01-29T02:47:32.700Z,13.90
2023-01-29T02:50:03.240Z,15.53
2023-01-29T02:52:36.858Z,15.47
2023-01-29T02:55:08.496Z,15.80
2023-01-29T02:57:39.194Z,15.40
2023-01-29T03:00:12.567Z,15.83
2023-01-29T03:02:45.008Z,14.97
2023-01-29T03:05:14.578Z,14.47
2023-01-29T03:07:46.480Z,14.67
2023-01-29T03:10:17.239Z,15.40
2023-01-29T03:12:46.615Z,13.93
2023-01-29T03:15:19.171Z,14.77
2023-01-29T03:17:49.792Z,16.13
2023-01-29T03:20:19.524Z,15.13
2023-01-29T03:22:51.751Z,14.50
2023-01-29T03:25:40.125Z,15.40
2023-01-29T03:28:26.519Z,14.70
2023-01-29T03:31:14.662Z,16.10
2023-01-29T03:33:45.720Z,16.03
2023-01-29T03:36:17.036Z,17.30
2023-01-29T03:38:45.851Z,18.20
2023-01-29T03:41:20.269Z,17.90
2023-01-29T03:43:52.988Z,16.20
2023-01-29T03:46:29.101Z,15.53
2023-01-29T03:48:59.998Z,18.23
2023-01-29T03:51:30.349Z,17.40
2023-01-29T03:54:05.267Z,18.03
2023-01-29T03:56:37.437Z,18.17
2023-01-29T03:59:11.943Z,18.20
2023-01-29T04:01:43.966Z,16.97
2023-01-29T04:04:14.852Z,18.27
2023-01-29T04:06:45.175Z,18.17
2023-01-29T04:09:15.525Z,18.83
2023-01-29T04:11:46.070Z,18.90
2023-01-29T04:14:14.828Z,16.73
2023-01-29T04:16:48.327Z,18.83
2023-01-29T04:19:16.983Z,17.77
2023-01-29T04:21:45.948Z,19.30
2023-01-29T04:24:15.527Z,19.20
2023-01-29T04:26:57.617Z,18.43
2023-01-29T04:29:31.526Z,18.30
2023-01-29T04:32:05.343Z,18.63
2023-01-29T04:34:39.729Z,18.47
2023-01-29T04:37:12.677Z,18.37
2023-01-29T04:39:46.066Z,18.50
2023-01-29T04:42:16.009Z,17.87
2023-01-29T04:44:49.838Z,18.47
2023-01-29T04:47:22.151Z,17.90
2023-01-29T04:49:55.045Z,18.53
2023-01-29T04:52:25.926Z,18.50
2023-01-29T04:54:58.415Z,18.60
2023-01-29T04:57:28.697Z,19.00
2023-01-29T04:59:59.379Z,18.50
2023-01-29T05:02:29.477Z,18.40
2023-01-29T05:04:59.305Z,18.57
2023-01-29T05:07:28.980Z,20.73
2023-01-29T05:09:58.094Z,19.60
2023-01-29T05:12:28.099Z,18.80
2023-01-29T05:14:58.163Z,19.40
2023-01-29T05:17:26.722Z,19.47
2023-01-29T05:19:57.229Z,19.47
2023-01-29T05:22:26.113Z,18.37
2023-01-29T05:24:54.866Z,20.40
2023-01-29T05:27:42.476Z,19.80
2023-01-29T05:30:11.444Z,19.60
2023-01-29T05:32:40.181Z,18.40
2023-01-29T05:35:10.273Z,19.33
2023-01-29T05:37:38.725Z,18.57
2023-01-29T05:40:09.606Z,18.67
2023-01-29T05:42:38.131Z,19.07
2023-01-29T05:45:07.028Z,20.23
2023-01-29T05:47:35.489Z,19.60
2023-01-29T05:50:03.896Z,19.27
2023-01-29T05:52:33.687Z,20.23
2023-01-29T05:55:02.103Z,19.47
2023-01-29T05:57:30.545Z,19.97
2023-01-29T05:59:58.957Z,18.37
2023-01-29T06:02:27.542Z,19.57
2023-01-29T06:04:55.933Z,18.60
2023-01-29T06:07:24.424Z,19.20
2023-01-29T06:09:54.206Z,19.93
2023-01-29T06:12:22.701Z,19.40
2023-01-29T06:14:51.091Z,19.87
2023-01-29T06:17:19.638Z,19.77
2023-01-29T06:19:48.104Z,19.93
2023-01-29T06:22:16.642Z,20.70
2023-01-29T06:24:45.694Z,19.43
2023-01-29T06:27:15.658Z,19.33
2023-01-29T06:29:43.977Z,18.73
2023-01-29T06:32:12.571Z,20.67
2023-01-29T06:34:40.978Z,19.77
2023-01-29T06:37:09.395Z,19.70
2023-01-29T06:39:37.835Z,20.30
2023-01-29T06:42:06.422Z,20.50
2023-01-29T06:44:36.196Z,22.00
2023-01-29T06:47:04.615Z,18.93
2023-01-29T06:49:33.061Z,19.97
2023-01-29T06:52:01.483Z,20.97
2023-01-29T06:54:29.888Z,18.83
2023-01-29T06:56:58.382Z,19.90
2023-01-29T06:59:26.815Z,20.83
2023-01-29T07:01:56.753Z,19.57
2023-01-29T07:04:25.189Z,19.80
2023-01-29T07:06:53.646Z,21.33
2023-01-29T07:09:22.056Z,21.17
2023-01-29T07:11:50.595Z,20.30
2023-01-29T07:14:19.073Z,19.93
2023-01-29T07:16:47.489Z,21.33
2023-01-29T07:19:17.522Z,20.73
2023-01-29T07:21:45.999Z,22.47
2023-01-29T07:24:14.564Z,20.63
2023-01-29T07:26:43.211Z,20.53
2023-01-29T07:29:11.772Z,21.73
2023-01-29T07:31:40.258Z,22.37
2023-01-29T07:34:08.743Z,21.60
2023-01-29T07:36:38.566Z,18.90
2023-01-29T07:39:06.997Z,20.80
2023-01-29T07:41:35.443Z,21.97
2023-01-29T07:44:03.854Z,21.57
2023-01-29T07:46:32.265Z,21.93
2023-01-29T07:49:00.722Z,22.47
2023-01-29T07:51:29.335Z,21.83
2023-01-29T07:53:59.115Z,22.73
2023-01-29T07:56:27.543Z,22.67
2023-01-29T07:58:56.023Z,21.93
2023-01-29T08:01:24.558Z,21.63
2023-01-29T08:03:53.084Z,22.23
2023-01-29T08:06:21.615Z,22.33
2023-01-29T08:08:49.987Z,23.50
2023-01-29T08:11:19.778Z,24.07
2023-01-29T08:13:48.169Z,23.23
2023-01-29T08:16:16.640Z,23.70
2023-01-29T08:18:47.685Z,21.83
2023-01-29T08:21:16.140Z,22.33
2023-01-29T08:23:44.576Z,21.67
2023-01-29T08:26:13.055Z,23.30
2023-01-29T08:28:42.840Z,22.23
2023-01-29T08:31:15.201Z,19.50
2023-01-29T08:33:43.623Z,22.30
2023-01-29T08:36:12.316Z,22.57
2023-01-29T08:38:40.712Z,21.30
2023-01-29T08:41:09.190Z,20.40
2023-01-29T08:43:38.571Z,23.53
2023-01-29T08:46:08.806Z,23.40
2023-01-29T08:48:37.304Z,23.30
2023-01-29T08:51:05.918Z,22.27
2023-01-29T08:53:34.518Z,22.03
2023-01-29T08:56:03.105Z,24.23
2023-01-29T08:58:31.500Z,22.13
2023-01-29T09:01:08.872Z,22.30
2023-01-29T09:03:37.535Z,22.97
2023-01-29T09:06:06.148Z,22.63
2023-01-29T09:08:34.586Z,20.50
2023-01-29T09:11:02.987Z,22.33
2023-01-29T09:13:31.571Z,18.00
2023-01-29T09:16:01.131Z,21.53
2023-01-29T09:18:31.267Z,18.50
2023-01-29T09:21:00.100Z,20.53
2023-01-29T09:23:28.500Z,17.07
2023-01-29T09:25:56.940Z,17.70
2023-01-29T09:28:25.467Z,20.27
2023-01-29T09:30:53.977Z,22.30
2023-01-29T09:33:22.434Z,22.67
2023-01-29T09:35:52.256Z,21.47
2023-01-29T09:38:20.728Z,21.17
2023-01-29T09:40:53.252Z,21.70
2023-01-29T09:43:23.021Z,20.07
2023-01-29T09:45:56.329Z,16.97
2023-01-29T09:48:28.656Z,19.77
2023-01-29T09:51:00.446Z,19.97
2023-01-29T09:53:32.535Z,18.57
2023-01-29T09:56:03.725Z,19.07
2023-01-29T09:58:34.072Z,19.03
2023-01-29T10:01:08.599Z,18.53
2023-01-29T10:03:52.633Z,18.67
2023-01-29T10:06:30.105Z,15.83
2023-01-29T10:09:22.202Z,20.10
2023-01-29T10:11:58.090Z,18.83
2023-01-29T10:14:32.028Z,18.10
2023-01-29T10:17:07.262Z,18.80
2023-01-29T10:19:50.493Z,20.20
2023-01-29T10:22:29.193Z,18.60
2023-01-29T10:24:59.516Z,15.60
2023-01-29T10:27:29.289Z,20.50
2023-01-29T10:29:58.894Z,19.43
2023-01-29T10:32:29.068Z,20.63
2023-01-29T10:34:59.918Z,19.53
2023-01-29T10:37:34.479Z,19.23
2023-01-29T10:40:03.059Z,19.73
2023-01-29T10:42:33.981Z,19.60
2023-01-29T10:45:10.911Z,19.97
2023-01-29T10:48:04.305Z,19.07
2023-01-29T10:50:38.692Z,17.60
2023-01-29T10:53:21.554Z,18.70
2023-01-29T10:55:56.536Z,20.23
2023-01-29T10:58:29.414Z,17.13
2023-01-29T11:00:58.147Z,18.03
2023-01-29T11:03:29.103Z,15.93
2023-01-29T11:06:00.856Z,17.67
2023-01-29T11:08:33.748Z,17.57
2023-01-29T11:11:07.032Z,15.47
2023-01-29T11:13:37.843Z,15.27
2023-01-29T11:16:06.663Z,15.40
2023-01-29T11:18:49.908Z,15.50
2023-01-29T11:21:18.482Z,15.38
2023-01-29T11:23:48.367Z,15.63
2023-01-29T11:26:20.751Z,14.13
2023-01-29T11:28:50.249Z,14.75
2023-01-29T11:31:26.044Z,14.32
2023-01-29T11:33:55.682Z,13.82
2023-01-29T11:36:30.907Z,13.75
2023-01-29T11:39:23.355Z,13.02
2023-01-29T11:41:55.047Z,12.95
2023-01-29T11:44:26.221Z,11.63
2023-01-29T11:46:54.611Z,12.02
2023-01-29T11:49:31.983Z,11.15
2023-01-29T11:52:02.030Z,12.73
2023-01-29T11:54:33.293Z,11.00
2023-01-29T11:57:03.375Z,11.38
2023-01-29T11:59:37.131Z,11.32
2023-01-29T12:02:16.465Z,13.70
2023-01-29T12:04:44.987Z,12.63
2023-01-29T12:07:15.408Z,12.40
2023-01-29T12:09:50.914Z,11.97
2023-01-29T12:12:28.964Z,13.70
2023-01-29T12:15:21.164Z,12.47
2023-01-29T12:17:54.151Z,11.30
2023-01-29T12:20:25.712Z,13.85
2023-01-29T12:22:59.376Z,10.93
2023-01-29T12:25:36.125Z,13.25
2023-01-29T12:28:09.752Z,12.32
2023-01-29T12:30:42.193Z,10.70
2023-01-29T12:33:14.699Z,10.75
2023-01-29T12:35:45.364Z,11.25
2023-01-29T12:38:18.251Z,11.02
2023-01-29T12:40:49.485Z,12.23
2023-01-29T12:43:20.251Z,10.23
2023-01-29T12:45:52.127Z,10.18
2023-01-29T12:48:22.833Z,12.10
2023-01-29T12:50:52.256Z,10.57
2023-01-29T12:53:25.146Z,10.48
2023-01-29T12:55:55.508Z,12.30
2023-01-29T12:58:28.641Z,10.05
2023-01-29T13:29:21.371Z,12.55
2023-01-29T13:31:49.561Z,13.18
2023-01-29T13:34:18.104Z,12.93
2023-01-29T13:38:05.701Z,12.55
2023-01-29T13:40:51.791Z,12.20
2023-01-29T13:43:21.266Z,11.15
2023-01-29T13:45:51.493Z,10.85
2023-01-29T13:48:22.819Z,10.77
2023-01-29T13:50:52.402Z,9.77
2023-01-29T13:53:22.287Z,10.15
2023-01-29T13:55:51.303Z,9.77
2023-01-29T14:01:49.376Z,9.02
2023-01-29T14:04:25.420Z,9.32
2023-01-29T14:07:27.864Z,10.00
2023-01-29T16:49:52.803Z,36.60
2023-01-29T17:07:22.089Z,22.25
2023-01-29T17:09:57.115Z,21.23
2023-01-29T17:12:26.736Z,21.90
2023-01-29T17:14:56.351Z,22.13
2023-01-29T17:17:30.525Z,21.52
2023-01-29T17:20:17.002Z,21.33
2023-01-29T17:22:50.204Z,21.13
2023-01-29T17:25:19.503Z,21.48
2023-01-29T17:27:51.681Z,21.30
2023-01-29T17:30:34.133Z,21.73
2023-01-29T17:33:13.980Z,22.25
2023-01-29T17:35:49.260Z,22.15
2023-01-29T17:38:26.504Z,21.48
2023-01-29T17:40:57.940Z,20.80
2023-01-29T17:43:26.062Z,21.27
2023-01-29T17:45:54.114Z,20.75
2023-01-29T17:48:23.809Z,21.20
2023-01-29T17:50:54.039Z,20.70
2023-01-29T17:53:26.531Z,22.08
2023-01-29T17:55:58.572Z,23.45
2023-01-29T17:58:28.036Z,20.42
2023-01-29T18:00:56.371Z,19.98
2023-01-29T18:03:26.543Z,21.17
2023-01-29T18:05:54.503Z,22.25
2023-01-29T18:08:29.682Z,21.00
2023-01-29T18:10:57.788Z,22.40
2023-01-29T18:13:26.062Z,22.27
2023-01-29T18:15:54.179Z,20.00
2023-01-29T18:18:24.273Z,20.33
2023-01-29T18:20:52.581Z,20.15
2023-01-29T18:23:21.122Z,24.30
2023-01-29T18:25:50.484Z,31.02
2023-01-29T18:28:19.216Z,22.02
2023-01-29T18:30:48.188Z,24.38
2023-01-29T18:33:17.176Z,47.15
2023-01-29T18:35:45.420Z,30.02
2023-01-29T18:38:13.580Z,22.70
2023-01-29T18:40:41.684Z,19.15
2023-01-29T18:43:11.406Z,18.73
2023-01-29T18:45:39.902Z,19.10
2023-01-29T18:48:08.013Z,19.33
2023-01-29T18:50:37.103Z,18.42
2023-01-29T18:53:05.653Z,18.15
2023-01-29T18:55:34.077Z,17.45
2023-01-29T18:58:28.983Z,21.13
2023-01-29T19:00:52.005Z,17.25
2023-01-29T19:03:20.245Z,21.95
2023-01-29T19:05:48.415Z,22.48
2023-01-29T19:08:16.636Z,19.58
2023-01-29T19:10:44.774Z,21.65
2023-01-29T19:13:13.356Z,17.17
2023-01-29T19:15:44.173Z,19.30
2023-01-29T19:18:14.852Z,20.60
2023-01-29T19:20:43.425Z,20.85
2023-01-29T19:23:11.657Z,20.90
2023-01-29T19:25:40.013Z,19.38
2023-01-29T19:28:08.980Z,20.60
2023-01-29T19:30:37.221Z,18.85
2023-01-29T19:33:05.458Z,20.83
2023-01-29T19:35:34.763Z,20.95
2023-01-29T19:38:02.858Z,20.73
2023-01-29T19:40:30.865Z,21.85
2023-01-29T19:42:59.539Z,19.75
2023-01-29T19:45:37.189Z,19.52
2023-01-29T19:48:16.980Z,19.17
2023-01-29T19:50:52.273Z,21.38
2023-01-29T19:53:20.488Z,18.88
2023-01-29T19:55:48.642Z,18.67
2023-01-29T19:58:16.880Z,19.75
2023-01-29T20:00:45.383Z,20.17
2023-01-29T20:03:15.380Z,20.38
2023-01-29T20:05:43.490Z,18.80
2023-01-29T20:08:13.265Z,18.88
2023-01-29T20:10:41.560Z,21.70
2023-01-29T20:13:09.621Z,19.10
2023-01-29T20:15:37.887Z,21.13
2023-01-29T20:18:11.793Z,15.13
2023-01-29T20:20:43.373Z,19.45
2023-01-29T20:23:13.544Z,19.85
2023-01-29T20:25:41.661Z,19.75
2023-01-29T20:28:12.614Z,19.60
2023-01-29T20:30:41.106Z,19.05
2023-01-29T20:33:09.418Z,20.98
2023-01-29T20:35:38.273Z,18.83
2023-01-29T20:38:06.736Z,21.02
2023-01-29T20:40:35.988Z,19.23
2023-01-29T20:43:04.179Z,19.58
2023-01-29T20:45:36.599Z,21.70
2023-01-29T20:48:08.840Z,19.33
2023-01-29T20:50:37.194Z,17.98
2023-01-29T20:53:05.340Z,20.23
2023-01-29T20:55:33.419Z,22.05
2023-01-29T20:58:05.802Z,20.02
2023-01-29T21:00:34.689Z,19.92
2023-01-29T21:03:02.983Z,19.13
2023-01-29T21:05:31.092Z,17.67
2023-01-29T21:07:59.290Z,20.08
2023-01-29T21:10:27.429Z,21.17
2023-01-29T21:12:55.973Z,19.90
2023-01-29T21:15:27.407Z,21.50
2023-01-29T21:17:55.624Z,19.25
2023-01-29T21:20:24.068Z,19.73
2023-01-29T21:22:52.247Z,20.23
2023-01-29T21:25:21.398Z,18.63
2023-01-29T21:27:50.024Z,20.35
2023-01-29T21:30:19.406Z,19.25
2023-01-29T21:32:48.997Z,18.42
2023-01-29T21:35:17.271Z,21.45
2023-01-29T21:37:45.441Z,20.08
2023-01-29T21:40:14.261Z,18.05
2023-01-29T21:42:59.967Z,20.90
2023-01-29T21:45:28.010Z,20.50
2023-01-29T21:47:57.527Z,18.98
2023-01-29T21:50:25.736Z,18.98
2023-01-29T21:52:54.104Z,18.77
2023-01-29T21:55:22.360Z,20.95
2023-01-29T21:57:50.826Z,19.10
2023-01-29T22:00:19.975Z,17.20
2023-01-29T22:02:50.112Z,20.80
2023-01-29T22:05:20.524Z,20.20
2023-01-29T22:07:49.167Z,20.83
2023-01-29T22:10:18.536Z,19.60
2023-01-29T22:12:47.113Z,20.15
2023-01-29T22:15:15.959Z,19.65
2023-01-29T22:17:44.107Z,20.98
2023-01-29T22:20:14.217Z,21.75
2023-01-29T22:22:43.926Z,19.77
2023-01-29T22:25:12.471Z,21.02
2023-01-29T22:27:40.619Z,20.83
2023-01-29T22:30:10.128Z,20.25
2023-01-29T22:32:38.393Z,19.65
2023-01-29T22:35:07.259Z,19.70
2023-01-29T22:37:35.442Z,19.83
2023-01-29T22:40:05.475Z,21.73
2023-01-29T22:42:33.574Z,19.88
2023-01-29T22:45:01.781Z,20.73
2023-01-29T22:47:29.875Z,19.83
2023-01-29T22:49:58.096Z,21.80
2023-01-29T22:52:27.952Z,20.00
2023-01-29T22:54:56.841Z,21.63
2023-01-29T22:57:26.410Z,20.35
2023-01-29T22:59:54.442Z,21.38
2023-01-29T23:02:22.483Z,21.33
2023-01-29T23:04:50.878Z,17.23
2023-01-29T23:07:19.084Z,22.63
2023-01-29T23:09:47.231Z,22.80
2023-01-29T23:12:15.949Z,19.48
2023-01-29T23:14:45.715Z,19.88
2023-01-29T23:17:13.848Z,22.80
2023-01-29T23:19:42.131Z,20.05
2023-01-29T23:22:10.373Z,22.35
2023-01-29T23:24:38.467Z,21.55
2023-01-29T23:27:14.630Z,20.30
2023-01-29T23:29:43.066Z,22.42
2023-01-29T23:32:15.499Z,20.27
2023-01-29T23:34:43.487Z,22.70
2023-01-29T23:37:11.651Z,22.42
2023-01-29T23:39:39.711Z,22.70
2023-01-29T23:42:08.144Z,21.85
2023-01-29T23:44:36.698Z,22.85
2023-01-29T23:47:04.934Z,22.60
2023-01-29T23:49:34.460Z,23.15
2023-01-29T23:52:02.556Z,23.20
2023-01-29T23:54:30.663Z,22.25
2023-01-29T23:56:58.640Z,22.35
2023-01-29T23:59:28.810Z,20.83
